createdAt,value
2017-11-07T00:07:24.056Z,29.7
2017-11-07T00:17:38.296Z,30.2
2017-11-07T00:27:53.645Z,30.1
2017-11-07T00:38:07.695Z,30.2
2017-11-07T00:48:22.260Z,30.2
2017-11-07T00:58:36.449Z,30.4
2017-11-07T01:08:51.545Z,30.8
2017-11-07T01:19:05.576Z,31.2
2017-11-07T01:29:19.367Z,31.2
2017-11-07T01:39:34.800Z,31.2
2017-11-07T01:49:48.928Z,31.4
2017-11-07T02:00:04.334Z,31.4
2017-11-07T02:10:19.043Z,31.4
2017-11-07T02:20:34.234Z,31.6
2017-11-07T02:30:48.776Z,31.9
2017-11-07T02:41:03.755Z,31.1
2017-11-07T02:51:18.152Z,30.3
2017-11-07T03:01:32.745Z,30.5
2017-11-07T03:11:46.692Z,30.6
2017-11-07T03:22:00.640Z,31
2017-11-07T03:32:15.762Z,30.8
2017-11-07T03:42:30.261Z,30.9
2017-11-07T03:52:44.418Z,31.3
2017-11-07T04:02:58.702Z,31.4
2017-11-07T04:13:13.994Z,31.4
2017-11-07T04:23:29.292Z,31.6
2017-11-07T04:33:44.483Z,31.8
2017-11-07T04:43:59.136Z,31.8
2017-11-07T04:54:13.727Z,31.8
2017-11-07T05:04:28.127Z,31.6
2017-11-07T05:14:42.181Z,31.8
2017-11-07T05:24:56.485Z,31.8
2017-11-07T05:35:10.257Z,31.6
2017-11-07T05:45:25.136Z,31.7
2017-11-07T05:55:40.482Z,31.7
2017-11-07T06:05:54.764Z,31.8
2017-11-07T06:16:09.280Z,31.9
2017-11-07T06:26:24.132Z,31.8
2017-11-07T06:36:38.354Z,31.6
2017-11-07T06:46:53.466Z,31.8
2017-11-07T06:57:08.595Z,31.6
2017-11-07T07:07:24.063Z,31.6
2017-11-07T07:17:37.813Z,31.8
2017-11-07T07:27:52.018Z,31.9
2017-11-07T07:38:06.259Z,31.8
2017-11-07T07:48:21.521Z,31.9
2017-11-07T07:58:35.937Z,31.7
2017-11-07T08:08:50.556Z,31.5
2017-11-07T08:19:04.308Z,31.5
2017-11-07T08:29:19.666Z,30.5
2017-11-07T08:39:35.302Z,30.4
2017-11-07T08:49:50.432Z,30.1
2017-11-07T09:00:05.317Z,29.8
2017-11-07T09:10:20.019Z,29.7
2017-11-07T09:20:34.496Z,29
2017-11-07T09:30:49.744Z,29.7
2017-11-07T09:41:04.272Z,29.6
2017-11-07T09:51:19.452Z,29.4
2017-11-07T10:01:33.193Z,29.6
2017-11-07T10:11:47.133Z,29.6
2017-11-07T10:22:01.104Z,29.2
2017-11-07T10:32:16.650Z,29
2017-11-07T10:42:31.948Z,28.9
2017-11-07T10:52:47.613Z,28.9
2017-11-07T11:03:03.238Z,28.9
2017-11-07T11:13:17.195Z,28.5
2017-11-07T11:23:32.607Z,29
2017-11-07T11:33:46.466Z,29.2
2017-11-07T11:44:00.269Z,29.7
2017-11-07T11:54:14.556Z,31.1
2017-11-07T12:04:28.801Z,31.9
2017-11-07T12:14:43.745Z,34
2017-11-07T12:24:59.126Z,35.1
2017-11-07T12:35:14.326Z,39.6
2017-11-07T12:45:28.882Z,45.8
2017-11-07T12:55:42.630Z,50.2
2017-11-07T13:05:56.575Z,55.2
2017-11-07T13:16:11.991Z,60.1
2017-11-07T13:26:26.922Z,62.2
2017-11-07T13:36:41.571Z,63.7
2017-11-07T13:46:57.238Z,66.2
2017-11-07T13:57:11.176Z,68.2
2017-11-07T14:07:26.745Z,71.8
2017-11-07T14:17:41.223Z,69.1
2017-11-07T14:27:56.155Z,69.2
2017-11-07T14:38:11.827Z,67.4
2017-11-07T14:48:27.065Z,66.2
2017-11-07T14:58:41.364Z,67.2
2017-11-07T15:08:55.213Z,65.2
2017-11-07T15:19:09.948Z,64.9
2017-11-07T15:29:25.464Z,63.4
2017-11-07T15:39:40.436Z,63.4
2017-11-07T15:49:55.907Z,62.1
2017-11-07T16:00:11.465Z,61.3
2017-11-07T16:10:25.893Z,60.8
2017-11-07T16:20:40.180Z,58.7
2017-11-07T16:30:55.759Z,55.7
2017-11-07T16:41:09.448Z,55
2017-11-07T16:51:23.501Z,54.4
2017-11-07T17:01:37.915Z,54.6
2017-11-07T17:11:53.326Z,54.5
2017-11-07T17:22:07.517Z,55.2
2017-11-07T17:32:21.259Z,58.5
2017-11-07T17:42:35.355Z,59.6
2017-11-07T17:52:49.198Z,60
2017-11-07T18:03:03.440Z,59.9
2017-11-07T18:13:19.089Z,59.6
2017-11-07T18:23:33.767Z,60.8
2017-11-07T18:33:47.622Z,60.7
2017-11-07T18:44:02.408Z,61.3
2017-11-07T18:54:16.704Z,62.9
2017-11-07T19:04:31.146Z,63.4
2017-11-07T19:14:45.902Z,61.9
2017-11-07T19:25:01.453Z,61.8
2017-11-07T19:35:16.242Z,61.7
2017-11-07T19:45:30.445Z,60.2
2017-11-07T19:55:45.378Z,57.7
2017-11-07T20:06:00.805Z,53.7
2017-11-07T20:16:14.787Z,51
2017-11-07T20:26:30.132Z,48.7
2017-11-07T20:36:45.003Z,43.4
2017-11-07T20:46:58.723Z,40
2017-11-07T20:57:13.094Z,38.5
2017-11-07T21:07:28.301Z,37
2017-11-07T21:17:43.298Z,36.7
2017-11-07T21:27:58.951Z,36.1
2017-11-07T21:38:14.057Z,34.2
2017-11-07T21:48:29.052Z,33.7
2017-11-07T21:58:43.951Z,32.7
2017-11-07T22:08:57.959Z,33
2017-11-07T22:19:13.355Z,33.2
2017-11-07T22:29:27.654Z,32.7
2017-11-07T22:39:42.406Z,32.3
2017-11-07T22:49:57.651Z,31.6
2017-11-07T23:00:11.601Z,31.8
2017-11-07T23:10:25.817Z,30.1
2017-11-07T23:20:41.202Z,30.1
2017-11-07T23:30:55.268Z,29.3
2017-11-07T23:41:10.072Z,29
2017-11-07T23:51:24.111Z,28.6
